Terminal Aerodrome Forecast
Issued by NWS

Home | Current Version | Previous Version | Text Only | Print | Product List | Glossary On
Versions: 1 2 3 4 5 6 7 8 9 10 11 12 13 14 15
806
FTUS45 KFGZ 251722
TAFPRC
TAF
KPRC 251722Z 2518/2618 20008KT P6SM SCT040 BKN060
      TEMPO 2520/2524 VRB10G20KT 5SM -TSRA BKN035CB
     FM260300 22005KT P6SM SCT060 BKN250=

USA.gov is the U.S. government's official web portal to all federal, state and local government web resources and services.